sensor_id;sensor_type;location;lat;lon;timestamp;pressure;altitude;pressure_sealevel;temperature;humidity
63535;BME280;55128;50.230;18.944;2024-02-23T00:00:33;96480.41;;;10.32;66.57
63535;BME280;55128;50.230;18.944;2024-02-23T00:05:33;96475.34;;;10.29;67.04
63535;BME280;55128;50.230;18.944;2024-02-23T00:10:33;96477.00;;;10.30;66.76
63535;BME280;55128;50.230;18.944;2024-02-23T00:15:34;96474.63;;;10.27;67.00
63535;BME280;55128;50.230;18.944;2024-02-23T00:20:34;96481.09;;;10.23;66.99
63535;BME280;55128;50.230;18.944;2024-02-23T00:25:34;96466.66;;;10.27;66.79
63535;BME280;55128;50.230;18.944;2024-02-23T00:30:35;96460.75;;;10.23;66.87
63535;BME280;55128;50.230;18.944;2024-02-23T00:35:36;96467.13;;;10.21;66.72
63535;BME280;55128;50.230;18.944;2024-02-23T00:40:36;96464.38;;;10.11;67.35
63535;BME280;55128;50.230;18.944;2024-02-23T00:45:36;96471.97;;;10.04;67.89
63535;BME280;55128;50.230;18.944;2024-02-23T00:50:37;96469.19;;;10.17;67.62
63535;BME280;55128;50.230;18.944;2024-02-23T00:55:37;96471.00;;;10.17;66.88
63535;BME280;55128;50.230;18.944;2024-02-23T01:00:38;96464.63;;;10.19;67.53
63535;BME280;55128;50.230;18.944;2024-02-23T01:05:38;96463.03;;;10.28;67.08
63535;BME280;55128;50.230;18.944;2024-02-23T01:10:39;96475.44;;;10.27;66.54
63535;BME280;55128;50.230;18.944;2024-02-23T01:15:41;96465.47;;;10.31;66.69
63535;BME280;55128;50.230;18.944;2024-02-23T01:20:43;96471.63;;;10.31;66.55
63535;BME280;55128;50.230;18.944;2024-02-23T01:25:44;96470.78;;;10.31;65.97
63535;BME280;55128;50.230;18.944;2024-02-23T01:30:44;96474.97;;;10.45;65.82
63535;BME280;55128;50.230;18.944;2024-02-23T01:35:44;96470.41;;;10.36;65.43
63535;BME280;55128;50.230;18.944;2024-02-23T01:40:45;96480.28;;;10.45;65.36
63535;BME280;55128;50.230;18.944;2024-02-23T01:45:45;96477.00;;;10.53;65.17
63535;BME280;55128;50.230;18.944;2024-02-23T01:50:46;96473.75;;;10.49;65.26
63535;BME280;55128;50.230;18.944;2024-02-23T01:55:49;96460.66;;;10.36;65.87
63535;BME280;55128;50.230;18.944;2024-02-23T02:00:49;96465.78;;;10.26;65.56
63535;BME280;55128;50.230;18.944;2024-02-23T02:05:50;96459.91;;;10.23;66.42
63535;BME280;55128;50.230;18.944;2024-02-23T02:10:52;96457.38;;;10.21;65.70
63535;BME280;55128;50.230;18.944;2024-02-23T02:15:53;96466.78;;;10.14;65.99
63535;BME280;55128;50.230;18.944;2024-02-23T02:20:57;96471.38;;;10.35;65.67
63535;BME280;55128;50.230;18.944;2024-02-23T02:25:58;96475.72;;;10.36;65.19
63535;BME280;55128;50.230;18.944;2024-02-23T02:30:59;96470.78;;;10.31;65.69
63535;BME280;55128;50.230;18.944;2024-02-23T02:35:59;96485.22;;;10.27;66.04
63535;BME280;55128;50.230;18.944;2024-02-23T02:41:00;96491.16;;;10.30;66.82
63535;BME280;55128;50.230;18.944;2024-02-23T02:46:03;96504.75;;;10.15;67.59
63535;BME280;55128;50.230;18.944;2024-02-23T02:51:03;96494.84;;;10.17;68.07
63535;BME280;55128;50.230;18.944;2024-02-23T02:56:07;96493.53;;;10.11;69.33
63535;BME280;55128;50.230;18.944;2024-02-23T03:01:08;96499.94;;;10.20;69.20
63535;BME280;55128;50.230;18.944;2024-02-23T03:06:08;96500.25;;;10.26;69.70
63535;BME280;55128;50.230;18.944;2024-02-23T03:11:09;96505.34;;;10.18;69.80
63535;BME280;55128;50.230;18.944;2024-02-23T03:16:16;96506.78;;;10.22;70.56
63535;BME280;55128;50.230;18.944;2024-02-23T03:21:17;96512.56;;;10.16;71.04
63535;BME280;55128;50.230;18.944;2024-02-23T03:26:18;96515.47;;;10.13;72.51
63535;BME280;55128;50.230;18.944;2024-02-23T03:31:18;96527.25;;;9.98;72.83
63535;BME280;55128;50.230;18.944;2024-02-23T03:36:18;96530.03;;;9.96;72.90
63535;BME280;55128;50.230;18.944;2024-02-23T03:41:19;96532.16;;;9.80;74.11
63535;BME280;55128;50.230;18.944;2024-02-23T03:46:19;96524.66;;;9.62;74.39
63535;BME280;55128;50.230;18.944;2024-02-23T03:51:20;96528.31;;;9.72;74.31
63535;BME280;55128;50.230;18.944;2024-02-23T03:56:20;96532.13;;;9.68;75.03
63535;BME280;55128;50.230;18.944;2024-02-23T04:01:21;96539.25;;;9.68;75.00
63535;BME280;55128;50.230;18.944;2024-02-23T04:06:21;96536.56;;;9.57;75.05
63535;BME280;55128;50.230;18.944;2024-02-23T04:11:22;96539.13;;;9.58;75.00
63535;BME280;55128;50.230;18.944;2024-02-23T04:16:23;96556.72;;;9.59;75.43
63535;BME280;55128;50.230;18.944;2024-02-23T04:21:25;96539.59;;;9.52;74.97
63535;BME280;55128;50.230;18.944;2024-02-23T04:26:25;96555.50;;;9.63;75.17
63535;BME280;55128;50.230;18.944;2024-02-23T04:31:25;96555.47;;;9.52;75.60
63535;BME280;55128;50.230;18.944;2024-02-23T04:36:26;96557.50;;;9.48;75.54
63535;BME280;55128;50.230;18.944;2024-02-23T04:41:26;96556.66;;;9.48;76.54
63535;BME280;55128;50.230;18.944;2024-02-23T04:46:27;96565.78;;;9.44;77.14
63535;BME280;55128;50.230;18.944;2024-02-23T04:51:27;96566.50;;;9.46;77.40
63535;BME280;55128;50.230;18.944;2024-02-23T04:56:27;96574.81;;;9.41;78.11
63535;BME280;55128;50.230;18.944;2024-02-23T05:01:28;96579.16;;;9.42;78.91
63535;BME280;55128;50.230;18.944;2024-02-23T05:06:29;96578.13;;;9.56;78.53
63535;BME280;55128;50.230;18.944;2024-02-23T05:11:29;96595.47;;;9.60;78.92
63535;BME280;55128;50.230;18.944;2024-02-23T05:16:30;96596.53;;;9.58;78.87
63535;BME280;55128;50.230;18.944;2024-02-23T05:21:30;96593.31;;;9.65;79.28
63535;BME280;55128;50.230;18.944;2024-02-23T05:26:31;96603.81;;;9.67;78.66
63535;BME280;55128;50.230;18.944;2024-02-23T05:31:49;96612.28;;;9.48;80.45
63535;BME280;55128;50.230;18.944;2024-02-23T05:36:52;96612.41;;;9.46;80.88
63535;BME280;55128;50.230;18.944;2024-02-23T05:41:52;96612.34;;;9.35;80.25
63535;BME280;55128;50.230;18.944;2024-02-23T05:46:53;96629.06;;;9.36;80.43
63535;BME280;55128;50.230;18.944;2024-02-23T05:51:53;96628.78;;;9.27;80.93
63535;BME280;55128;50.230;18.944;2024-02-23T05:56:55;96631.59;;;9.13;81.84
63535;BME280;55128;50.230;18.944;2024-02-23T06:01:55;96642.13;;;9.26;81.37
63535;BME280;55128;50.230;18.944;2024-02-23T06:06:58;96666.47;;;9.31;81.04
63535;BME280;55128;50.230;18.944;2024-02-23T06:11:59;96671.09;;;9.16;82.09
63535;BME280;55128;50.230;18.944;2024-02-23T06:17:00;96682.97;;;9.34;82.24
63535;BME280;55128;50.230;18.944;2024-02-23T06:22:01;96678.34;;;9.49;81.57
63535;BME280;55128;50.230;18.944;2024-02-23T06:27:02;96682.03;;;9.36;81.36
63535;BME280;55128;50.230;18.944;2024-02-23T06:32:03;96694.63;;;9.32;82.68
63535;BME280;55128;50.230;18.944;2024-02-23T06:37:04;96709.44;;;9.34;82.86
63535;BME280;55128;50.230;18.944;2024-02-23T06:42:04;96719.28;;;9.45;82.39
63535;BME280;55128;50.230;18.944;2024-02-23T06:47:05;96741.28;;;9.46;83.19
63535;BME280;55128;50.230;18.944;2024-02-23T06:52:06;96746.97;;;9.65;83.01
63535;BME280;55128;50.230;18.944;2024-02-23T06:57:07;96768.16;;;9.65;82.93
63535;BME280;55128;50.230;18.944;2024-02-23T07:02:10;96764.38;;;9.57;82.74
63535;BME280;55128;50.230;18.944;2024-02-23T07:07:10;96759.47;;;9.63;82.64
63535;BME280;55128;50.230;18.944;2024-02-23T07:12:14;96764.53;;;9.66;83.48
63535;BME280;55128;50.230;18.944;2024-02-23T07:17:18;96759.69;;;9.60;83.73
63535;BME280;55128;50.230;18.944;2024-02-23T07:22:19;96762.94;;;9.77;84.15
63535;BME280;55128;50.230;18.944;2024-02-23T07:27:20;96765.28;;;9.68;83.70
63535;BME280;55128;50.230;18.944;2024-02-23T07:32:21;96766.97;;;9.69;84.52
63535;BME280;55128;50.230;18.944;2024-02-23T07:37:21;96765.06;;;9.71;83.87
63535;BME280;55128;50.230;18.944;2024-02-23T07:42:22;96767.91;;;9.68;84.57
63535;BME280;55128;50.230;18.944;2024-02-23T07:47:22;96768.06;;;9.67;84.96
63535;BME280;55128;50.230;18.944;2024-02-23T07:52:30;96776.25;;;9.88;84.70
63535;BME280;55128;50.230;18.944;2024-02-23T07:57:31;96785.19;;;9.98;84.66
63535;BME280;55128;50.230;18.944;2024-02-23T08:02:31;96780.31;;;10.05;83.49
63535;BME280;55128;50.230;18.944;2024-02-23T08:07:32;96784.88;;;10.03;83.75
63535;BME280;55128;50.230;18.944;2024-02-23T08:12:32;96789.38;;;10.14;84.02
63535;BME280;55128;50.230;18.944;2024-02-23T08:17:33;96801.09;;;9.98;84.07
63535;BME280;55128;50.230;18.944;2024-02-23T08:22:33;96802.81;;;9.99;84.31
63535;BME280;55128;50.230;18.944;2024-02-23T08:27:33;96809.78;;;10.00;84.24
63535;BME280;55128;50.230;18.944;2024-02-23T08:32:34;96812.50;;;10.11;84.61
63535;BME280;55128;50.230;18.944;2024-02-23T08:37:35;96803.13;;;10.19;84.58
63535;BME280;55128;50.230;18.944;2024-02-23T08:42:35;96818.19;;;10.18;84.15
63535;BME280;55128;50.230;18.944;2024-02-23T08:47:36;96817.31;;;10.06;84.72
63535;BME280;55128;50.230;18.944;2024-02-23T08:52:36;96814.88;;;10.03;84.62
63535;BME280;55128;50.230;18.944;2024-02-23T08:57:37;96814.50;;;9.97;85.42
63535;BME280;55128;50.230;18.944;2024-02-23T09:02:37;96819.41;;;10.14;84.76
63535;BME280;55128;50.230;18.944;2024-02-23T09:07:38;96814.16;;;10.25;84.53
63535;BME280;55128;50.230;18.944;2024-02-23T09:12:38;96828.41;;;10.11;85.21
63535;BME280;55128;50.230;18.944;2024-02-23T09:17:42;96821.66;;;10.31;85.41
63535;BME280;55128;50.230;18.944;2024-02-23T09:22:42;96836.25;;;10.61;84.35
63535;BME280;55128;50.230;18.944;2024-02-23T09:27:42;96851.34;;;10.61;85.11
63535;BME280;55128;50.230;18.944;2024-02-23T09:32:43;96854.28;;;10.80;84.44
63535;BME280;55128;50.230;18.944;2024-02-23T09:37:44;96862.13;;;11.17;83.89
63535;BME280;55128;50.230;18.944;2024-02-23T09:42:53;96870.69;;;11.09;83.32
63535;BME280;55128;50.230;18.944;2024-02-23T09:47:56;96889.09;;;11.00;83.67
63535;BME280;55128;50.230;18.944;2024-02-23T09:52:58;96887.88;;;10.93;83.63
63535;BME280;55128;50.230;18.944;2024-02-23T09:57:59;96889.69;;;11.03;82.98
63535;BME280;55128;50.230;18.944;2024-02-23T10:03:00;96894.22;;;11.25;83.67
63535;BME280;55128;50.230;18.944;2024-02-23T10:08:00;96888.34;;;11.44;82.18
63535;BME280;55128;50.230;18.944;2024-02-23T10:13:03;96894.84;;;11.40;80.90
63535;BME280;55128;50.230;18.944;2024-02-23T10:18:06;96896.19;;;11.46;81.25
63535;BME280;55128;50.230;18.944;2024-02-23T10:23:10;96881.97;;;11.47;80.88
63535;BME280;55128;50.230;18.944;2024-02-23T10:28:10;96891.00;;;11.44;80.97
63535;BME280;55128;50.230;18.944;2024-02-23T10:33:12;96886.38;;;11.24;80.05
63535;BME280;55128;50.230;18.944;2024-02-23T10:38:15;96883.63;;;11.37;80.02
63535;BME280;55128;50.230;18.944;2024-02-23T10:43:19;96894.19;;;11.03;79.19
63535;BME280;55128;50.230;18.944;2024-02-23T10:48:21;96901.50;;;10.88;81.08
63535;BME280;55128;50.230;18.944;2024-02-23T10:53:23;96906.25;;;11.07;79.83
63535;BME280;55128;50.230;18.944;2024-02-23T10:58:23;96920.22;;;10.98;80.35
63535;BME280;55128;50.230;18.944;2024-02-23T11:03:24;96923.50;;;10.77;80.56
63535;BME280;55128;50.230;18.944;2024-02-23T11:08:32;96922.50;;;10.91;80.05
63535;BME280;55128;50.230;18.944;2024-02-23T11:13:39;96916.28;;;10.68;80.82
63535;BME280;55128;50.230;18.944;2024-02-23T11:18:40;96924.03;;;10.82;81.73
63535;BME280;55128;50.230;18.944;2024-02-23T11:23:43;96933.19;;;11.14;81.16
63535;BME280;55128;50.230;18.944;2024-02-23T11:28:51;96940.38;;;11.24;80.66
63535;BME280;55128;50.230;18.944;2024-02-23T11:33:55;96939.38;;;11.25;81.37
63535;BME280;55128;50.230;18.944;2024-02-23T11:38:57;96937.97;;;11.44;80.45
63535;BME280;55128;50.230;18.944;2024-02-23T11:43:58;96948.94;;;11.28;80.74
63535;BME280;55128;50.230;18.944;2024-02-23T11:48:58;96954.19;;;11.63;80.97
63535;BME280;55128;50.230;18.944;2024-02-23T11:54:00;96951.03;;;11.47;80.07
63535;BME280;55128;50.230;18.944;2024-02-23T11:59:01;96964.97;;;11.62;80.85
63535;BME280;55128;50.230;18.944;2024-02-23T12:04:01;96983.19;;;11.55;81.14
63535;BME280;55128;50.230;18.944;2024-02-23T12:09:02;96994.16;;;11.51;80.11
63535;BME280;55128;50.230;18.944;2024-02-23T12:14:05;96983.41;;;11.52;80.79
63535;BME280;55128;50.230;18.944;2024-02-23T12:19:08;96965.22;;;11.70;80.47
63535;BME280;55128;50.230;18.944;2024-02-23T12:24:09;96960.97;;;11.67;80.21
63535;BME280;55128;50.230;18.944;2024-02-23T12:29:09;96979.97;;;11.85;79.29
63535;BME280;55128;50.230;18.944;2024-02-23T12:34:11;96977.19;;;11.87;79.62
63535;BME280;55128;50.230;18.944;2024-02-23T12:39:13;96963.00;;;11.53;80.50
63535;BME280;55128;50.230;18.944;2024-02-23T12:44:14;96967.63;;;11.73;80.43
63535;BME280;55128;50.230;18.944;2024-02-23T12:49:14;96976.34;;;11.86;79.86
63535;BME280;55128;50.230;18.944;2024-02-23T12:54:16;96976.44;;;11.74;80.64
63535;BME280;55128;50.230;18.944;2024-02-23T12:59:16;96991.06;;;11.68;80.64
63535;BME280;55128;50.230;18.944;2024-02-23T13:04:17;96993.75;;;11.79;80.52
63535;BME280;55128;50.230;18.944;2024-02-23T13:09:17;96989.84;;;11.61;80.93
63535;BME280;55128;50.230;18.944;2024-02-23T13:14:17;96994.25;;;11.84;81.22
63535;BME280;55128;50.230;18.944;2024-02-23T13:19:18;96991.25;;;12.00;80.47
63535;BME280;55128;50.230;18.944;2024-02-23T13:24:18;96987.16;;;12.08;80.31
63535;BME280;55128;50.230;18.944;2024-02-23T13:29:19;96988.47;;;12.02;79.89
63535;BME280;55128;50.230;18.944;2024-02-23T13:34:20;96996.16;;;11.82;79.70
63535;BME280;55128;50.230;18.944;2024-02-23T13:39:21;97002.06;;;11.86;80.67
63535;BME280;55128;50.230;18.944;2024-02-23T13:44:21;97014.94;;;11.92;79.81
63535;BME280;55128;50.230;18.944;2024-02-23T13:49:21;97025.53;;;11.81;79.97
63535;BME280;55128;50.230;18.944;2024-02-23T13:54:22;97021.50;;;11.64;80.69
63535;BME280;55128;50.230;18.944;2024-02-23T13:59:22;97020.75;;;11.51;81.07
63535;BME280;55128;50.230;18.944;2024-02-23T14:04:23;97021.22;;;11.56;81.48
63535;BME280;55128;50.230;18.944;2024-02-23T14:09:23;97035.09;;;11.48;81.97
63535;BME280;55128;50.230;18.944;2024-02-23T14:14:24;97032.03;;;11.30;82.41
63535;BME280;55128;50.230;18.944;2024-02-23T14:19:24;97037.66;;;11.01;82.69
63535;BME280;55128;50.230;18.944;2024-02-23T14:24:25;97042.63;;;10.82;82.42
63535;BME280;55128;50.230;18.944;2024-02-23T14:29:26;97037.66;;;10.77;83.46
63535;BME280;55128;50.230;18.944;2024-02-23T14:34:27;97037.44;;;10.80;82.22
63535;BME280;55128;50.230;18.944;2024-02-23T14:39:27;97040.28;;;10.77;82.82
63535;BME280;55128;50.230;18.944;2024-02-23T14:44:28;97028.66;;;10.67;81.73
63535;BME280;55128;50.230;18.944;2024-02-23T14:49:28;97031.16;;;10.57;82.55
63535;BME280;55128;50.230;18.944;2024-02-23T14:54:29;97024.03;;;10.58;82.48
63535;BME280;55128;50.230;18.944;2024-02-23T14:59:29;97036.97;;;10.62;82.61
63535;BME280;55128;50.230;18.944;2024-02-23T15:04:30;97041.22;;;10.52;82.66
63535;BME280;55128;50.230;18.944;2024-02-23T15:09:31;97022.56;;;10.41;83.72
63535;BME280;55128;50.230;18.944;2024-02-23T15:14:31;97027.25;;;10.37;83.37
63535;BME280;55128;50.230;18.944;2024-02-23T15:19:31;97026.28;;;10.25;83.59
63535;BME280;55128;50.230;18.944;2024-02-23T15:24:32;97018.63;;;10.46;83.42
63535;BME280;55128;50.230;18.944;2024-02-23T15:29:32;97021.19;;;10.48;82.72
63535;BME280;55128;50.230;18.944;2024-02-23T15:34:33;97023.75;;;10.49;83.40
63535;BME280;55128;50.230;18.944;2024-02-23T15:39:33;97023.00;;;10.47;82.56
63535;BME280;55128;50.230;18.944;2024-02-23T15:44:33;97030.09;;;10.34;83.57
63535;BME280;55128;50.230;18.944;2024-02-23T15:49:34;97023.94;;;10.46;83.12
63535;BME280;55128;50.230;18.944;2024-02-23T15:54:34;97038.84;;;10.36;83.00
63535;BME280;55128;50.230;18.944;2024-02-23T15:59:34;97039.97;;;10.32;83.24
63535;BME280;55128;50.230;18.944;2024-02-23T16:04:35;97040.00;;;10.06;83.60
63535;BME280;55128;50.230;18.944;2024-02-23T16:09:35;97036.25;;;10.22;83.36
63535;BME280;55128;50.230;18.944;2024-02-23T16:14:36;97033.63;;;10.09;83.85
63535;BME280;55128;50.230;18.944;2024-02-23T16:19:37;97050.91;;;10.02;84.17
63535;BME280;55128;50.230;18.944;2024-02-23T16:24:38;97058.66;;;9.92;84.01
63535;BME280;55128;50.230;18.944;2024-02-23T16:29:38;97056.63;;;9.83;84.20
63535;BME280;55128;50.230;18.944;2024-02-23T16:34:38;97056.63;;;9.83;84.70
63535;BME280;55128;50.230;18.944;2024-02-23T16:39:39;97050.28;;;9.72;85.23
63535;BME280;55128;50.230;18.944;2024-02-23T16:44:39;97042.00;;;9.77;84.37
63535;BME280;55128;50.230;18.944;2024-02-23T16:49:41;97027.03;;;9.63;85.54
63535;BME280;55128;50.230;18.944;2024-02-23T16:54:41;97025.44;;;9.48;85.84
63535;BME280;55128;50.230;18.944;2024-02-23T16:59:41;97037.53;;;9.52;85.59
63535;BME280;55128;50.230;18.944;2024-02-23T17:04:44;97039.06;;;9.42;85.85
63535;BME280;55128;50.230;18.944;2024-02-23T17:09:45;97033.81;;;9.54;85.08
63535;BME280;55128;50.230;18.944;2024-02-23T17:14:50;97038.13;;;9.43;85.87
63535;BME280;55128;50.230;18.944;2024-02-23T17:19:51;97051.81;;;9.37;86.75
63535;BME280;55128;50.230;18.944;2024-02-23T17:24:51;97060.50;;;9.39;86.43
63535;BME280;55128;50.230;18.944;2024-02-23T17:29:51;97051.03;;;9.34;86.63
63535;BME280;55128;50.230;18.944;2024-02-23T17:34:53;97056.78;;;9.41;86.64
63535;BME280;55128;50.230;18.944;2024-02-23T17:39:56;97056.09;;;9.25;86.90
63535;BME280;55128;50.230;18.944;2024-02-23T17:44:57;97058.00;;;9.23;86.84
63535;BME280;55128;50.230;18.944;2024-02-23T17:49:57;97056.31;;;9.34;86.39
63535;BME280;55128;50.230;18.944;2024-02-23T17:54:58;97044.88;;;9.34;86.04
63535;BME280;55128;50.230;18.944;2024-02-23T17:59:59;97049.75;;;9.27;86.43
63535;BME280;55128;50.230;18.944;2024-02-23T18:04:59;97044.66;;;9.24;86.50
63535;BME280;55128;50.230;18.944;2024-02-23T18:10:00;97045.72;;;9.22;86.83
63535;BME280;55128;50.230;18.944;2024-02-23T18:15:00;97040.16;;;9.12;87.02
63535;BME280;55128;50.230;18.944;2024-02-23T18:20:00;97041.63;;;9.03;86.90
63535;BME280;55128;50.230;18.944;2024-02-23T18:25:01;97046.75;;;9.19;86.55
63535;BME280;55128;50.230;18.944;2024-02-23T18:30:01;97040.38;;;9.09;86.30
63535;BME280;55128;50.230;18.944;2024-02-23T18:35:02;97041.81;;;9.00;87.17
63535;BME280;55128;50.230;18.944;2024-02-23T18:40:04;97041.53;;;9.05;87.04
63535;BME280;55128;50.230;18.944;2024-02-23T18:45:05;97041.31;;;9.08;86.17
63535;BME280;55128;50.230;18.944;2024-02-23T18:50:06;97038.84;;;8.92;87.31
63535;BME280;55128;50.230;18.944;2024-02-23T18:55:07;97052.25;;;8.89;87.16
63535;BME280;55128;50.230;18.944;2024-02-23T19:00:08;97055.56;;;8.92;87.52
63535;BME280;55128;50.230;18.944;2024-02-23T19:05:10;97038.13;;;9.03;87.19
63535;BME280;55128;50.230;18.944;2024-02-23T19:10:11;97036.75;;;9.10;86.85
63535;BME280;55128;50.230;18.944;2024-02-23T19:15:14;97020.66;;;9.00;86.86
63535;BME280;55128;50.230;18.944;2024-02-23T19:20:15;97019.25;;;8.94;87.01
63535;BME280;55128;50.230;18.944;2024-02-23T19:25:15;97013.88;;;8.96;87.17
63535;BME280;55128;50.230;18.944;2024-02-23T19:30:16;97017.91;;;9.02;87.09
63535;BME280;55128;50.230;18.944;2024-02-23T19:35:17;97013.25;;;9.05;87.15
63535;BME280;55128;50.230;18.944;2024-02-23T19:40:18;97005.38;;;8.91;86.56
63535;BME280;55128;50.230;18.944;2024-02-23T19:45:22;96999.97;;;8.92;86.84
63535;BME280;55128;50.230;18.944;2024-02-23T19:50:23;97002.63;;;8.92;87.38
63535;BME280;55128;50.230;18.944;2024-02-23T19:55:24;97000.72;;;8.94;87.36
63535;BME280;55128;50.230;18.944;2024-02-23T20:00:25;97007.13;;;9.05;86.83
63535;BME280;55128;50.230;18.944;2024-02-23T20:05:27;96987.81;;;9.03;86.12
63535;BME280;55128;50.230;18.944;2024-02-23T20:10:28;96991.53;;;9.00;87.05
63535;BME280;55128;50.230;18.944;2024-02-23T20:15:28;96984.75;;;8.96;87.29
63535;BME280;55128;50.230;18.944;2024-02-23T20:20:32;96965.03;;;8.87;87.38
63535;BME280;55128;50.230;18.944;2024-02-23T20:25:34;96972.97;;;8.87;87.25
63535;BME280;55128;50.230;18.944;2024-02-23T20:30:35;96970.72;;;8.81;87.70
63535;BME280;55128;50.230;18.944;2024-02-23T20:35:36;96959.00;;;8.85;87.37
63535;BME280;55128;50.230;18.944;2024-02-23T20:40:36;96959.53;;;8.90;86.91
63535;BME280;55128;50.230;18.944;2024-02-23T20:45:36;96961.78;;;8.97;86.72
63535;BME280;55128;50.230;18.944;2024-02-23T20:50:37;96945.66;;;8.87;87.07
63535;BME280;55128;50.230;18.944;2024-02-23T20:55:40;96940.38;;;8.87;86.75
63535;BME280;55128;50.230;18.944;2024-02-23T21:00:40;96956.56;;;8.82;87.07
63535;BME280;55128;50.230;18.944;2024-02-23T21:05:41;96953.09;;;8.94;86.81
63535;BME280;55128;50.230;18.944;2024-02-23T21:10:41;96954.34;;;8.89;86.58
63535;BME280;55128;50.230;18.944;2024-02-23T21:15:42;96963.03;;;8.91;86.77
63535;BME280;55128;50.230;18.944;2024-02-23T21:20:47;96943.69;;;9.03;85.65
63535;BME280;55128;50.230;18.944;2024-02-23T21:25:50;96937.88;;;8.98;84.57
63535;BME280;55128;50.230;18.944;2024-02-23T21:30:50;96936.78;;;9.01;83.22
63535;BME280;55128;50.230;18.944;2024-02-23T21:35:55;96928.34;;;8.95;84.25
63535;BME280;55128;50.230;18.944;2024-02-23T21:40:55;96932.56;;;8.98;83.93
63535;BME280;55128;50.230;18.944;2024-02-23T21:45:55;96924.00;;;9.07;83.62
63535;BME280;55128;50.230;18.944;2024-02-23T21:50:56;96927.50;;;9.08;83.68
63535;BME280;55128;50.230;18.944;2024-02-23T21:55:57;96908.66;;;9.00;83.99
63535;BME280;55128;50.230;18.944;2024-02-23T22:00:58;96906.63;;;8.90;84.19
63535;BME280;55128;50.230;18.944;2024-02-23T22:05:58;96908.44;;;9.03;84.47
63535;BME280;55128;50.230;18.944;2024-02-23T22:10:58;96904.72;;;8.92;84.12
63535;BME280;55128;50.230;18.944;2024-02-23T22:15:59;96889.28;;;8.99;84.02
63535;BME280;55128;50.230;18.944;2024-02-23T22:20:59;96884.19;;;8.96;83.96
63535;BME280;55128;50.230;18.944;2024-02-23T22:26:03;96884.50;;;8.79;85.04
63535;BME280;55128;50.230;18.944;2024-02-23T22:31:03;96883.31;;;8.83;84.50
63535;BME280;55128;50.230;18.944;2024-02-23T22:36:04;96879.53;;;8.87;84.62
63535;BME280;55128;50.230;18.944;2024-02-23T22:41:05;96868.50;;;8.93;83.47
63535;BME280;55128;50.230;18.944;2024-02-23T22:46:05;96869.06;;;8.98;82.90
63535;BME280;55128;50.230;18.944;2024-02-23T22:51:06;96866.72;;;9.06;82.21
63535;BME280;55128;50.230;18.944;2024-02-23T22:56:06;96875.66;;;9.18;81.18
63535;BME280;55128;50.230;18.944;2024-02-23T23:01:07;96861.53;;;9.18;81.24
63535;BME280;55128;50.230;18.944;2024-02-23T23:06:09;96861.03;;;9.25;80.78
63535;BME280;55128;50.230;18.944;2024-02-23T23:11:09;96869.59;;;9.42;79.28
63535;BME280;55128;50.230;18.944;2024-02-23T23:16:10;96853.69;;;9.42;79.46
63535;BME280;55128;50.230;18.944;2024-02-23T23:21:10;96849.56;;;9.38;80.17
63535;BME280;55128;50.230;18.944;2024-02-23T23:26:10;96852.63;;;9.57;78.74
63535;BME280;55128;50.230;18.944;2024-02-23T23:31:17;96841.06;;;9.58;79.15
63535;BME280;55128;50.230;18.944;2024-02-23T23:36:18;96842.66;;;9.61;78.80
63535;BME280;55128;50.230;18.944;2024-02-23T23:41:18;96840.88;;;9.61;78.89
63535;BME280;55128;50.230;18.944;2024-02-23T23:46:19;96840.25;;;9.58;79.22
63535;BME280;55128;50.230;18.944;2024-02-23T23:51:19;96840.53;;;9.66;79.23
63535;BME280;55128;50.230;18.944;2024-02-23T23:56:19;96827.19;;;9.67;78.71
